createdAt,value
2023-01-12T00:02:18.910Z,101556.19
2023-01-12T00:04:46.726Z,101559.44
2023-01-12T00:07:16.164Z,101557.97
2023-01-12T00:09:44.417Z,101563.25
2023-01-12T00:12:12.055Z,101559.25
2023-01-12T00:14:39.794Z,101549.25
2023-01-12T00:17:09.039Z,101537.72
2023-01-12T00:19:38.826Z,101535.97
2023-01-12T00:22:11.896Z,101541.06
2023-01-12T00:24:40.707Z,101551.69
2023-01-12T00:27:10.106Z,101563.84
2023-01-12T00:29:37.846Z,101572.56
2023-01-12T00:32:05.372Z,101589.78
2023-01-12T00:34:33.076Z,101582.88
2023-01-12T00:37:01.377Z,101583.88
2023-01-12T00:39:29.665Z,101576.03
2023-01-12T00:42:15.507Z,101577.59
2023-01-12T00:45:01.549Z,101574.47
2023-01-12T00:47:29.154Z,101571.31
2023-01-12T00:49:57.386Z,101580.72
2023-01-12T00:52:30.855Z,101573.88
2023-01-12T00:55:01.642Z,101562.88
2023-01-12T00:57:29.703Z,101561.50
2023-01-12T00:59:58.396Z,101553.25
2023-01-12T01:02:26.908Z,101544.81
2023-01-12T01:04:55.143Z,101551.69
2023-01-12T01:07:23.170Z,101539.53
2023-01-12T01:09:50.461Z,101534.41
2023-01-12T01:12:18.692Z,101553.06
2023-01-12T01:14:47.491Z,101550.50
2023-01-12T01:17:15.255Z,101549.00
2023-01-12T01:19:43.804Z,101556.44
2023-01-12T01:22:13.260Z,101557.34
2023-01-12T01:24:41.549Z,101550.41
2023-01-12T01:27:09.460Z,101546.69
2023-01-12T01:29:37.563Z,101560.00
2023-01-12T01:32:05.193Z,101567.44
2023-01-12T01:34:33.415Z,101555.59
2023-01-12T01:37:01.746Z,101561.56
2023-01-12T01:39:29.819Z,101564.28
2023-01-12T01:41:58.076Z,101561.09
2023-01-12T01:44:31.404Z,101565.91
2023-01-12T01:47:03.954Z,101571.69
2023-01-12T01:49:48.949Z,101575.09
2023-01-12T01:52:30.319Z,101572.13
2023-01-12T01:55:11.081Z,101567.16
2023-01-12T01:58:10.273Z,101567.75
2023-01-12T02:00:39.150Z,101567.53
2023-01-12T02:03:06.576Z,101577.53
2023-01-12T02:05:34.313Z,101578.63
2023-01-12T02:08:16.868Z,101572.75
2023-01-12T02:10:49.569Z,101569.31
2023-01-12T02:13:35.638Z,101575.19
2023-01-12T02:16:28.031Z,101579.09
2023-01-12T02:19:18.120Z,101577.06
2023-01-12T02:22:05.903Z,101578.41
2023-01-12T02:24:35.280Z,101585.41
2023-01-12T02:27:13.899Z,101579.88
2023-01-12T02:30:06.049Z,101576.91
2023-01-12T02:32:39.383Z,101568.25
2023-01-12T02:35:26.679Z,101559.63
2023-01-12T02:37:56.670Z,101558.44
2023-01-12T02:40:32.656Z,101550.81
2023-01-12T02:43:03.453Z,101553.91
2023-01-12T02:45:47.896Z,101555.66
2023-01-12T02:48:22.324Z,101539.38
2023-01-12T02:51:02.526Z,101543.72
2023-01-12T02:53:44.975Z,101544.47
2023-01-12T02:56:14.166Z,101542.72
2023-01-12T02:58:44.077Z,101541.63
2023-01-12T03:01:12.096Z,101539.88
2023-01-12T03:03:40.037Z,101543.97
2023-01-12T03:06:09.033Z,101553.72
2023-01-12T03:08:37.867Z,101559.03
2023-01-12T03:11:28.903Z,101549.84
2023-01-12T03:13:58.180Z,101537.13
2023-01-12T03:16:27.356Z,101540.31
2023-01-12T03:19:19.891Z,101549.38
2023-01-12T03:22:13.273Z,101558.56
2023-01-12T03:24:49.574Z,101566.31
2023-01-12T03:27:19.010Z,101565.75
2023-01-12T03:30:17.022Z,101566.00
2023-01-12T03:32:45.097Z,101574.72
2023-01-12T03:35:12.845Z,101571.50
2023-01-12T03:38:12.275Z,101564.13
2023-01-12T03:40:50.429Z,101567.19
2023-01-12T03:43:31.484Z,101563.19
2023-01-12T03:46:02.360Z,101570.72
2023-01-12T03:48:48.934Z,101572.69
2023-01-12T03:51:28.007Z,101566.59
2023-01-12T03:53:55.520Z,101570.56
2023-01-12T03:56:24.462Z,101564.06
2023-01-12T03:58:52.177Z,101563.19
2023-01-12T04:01:20.017Z,101568.41
2023-01-12T04:03:47.745Z,101568.69
2023-01-12T04:06:16.299Z,101570.25
2023-01-12T04:08:44.670Z,101562.50
2023-01-12T04:11:35.382Z,101560.81
2023-01-12T04:14:03.523Z,101556.72
2023-01-12T04:16:31.629Z,101565.81
2023-01-12T04:19:00.123Z,101577.63
2023-01-12T04:21:47.389Z,101580.25
2023-01-12T04:24:15.343Z,101585.94
2023-01-12T04:26:43.327Z,101590.56
2023-01-12T04:29:11.576Z,101592.50
2023-01-12T04:31:40.464Z,101599.06
2023-01-12T04:34:08.860Z,101604.59
2023-01-12T04:36:36.856Z,101611.44
2023-01-12T04:39:05.941Z,101618.31
2023-01-12T04:41:34.142Z,101635.38
2023-01-12T04:44:02.096Z,101629.34
2023-01-12T04:46:30.101Z,101621.72
2023-01-12T04:48:58.182Z,101626.47
2023-01-12T04:51:26.111Z,101639.91
2023-01-12T04:53:53.647Z,101645.13
2023-01-12T04:56:21.454Z,101653.88
2023-01-12T04:58:49.235Z,101659.31
2023-01-12T05:01:18.776Z,101671.88
2023-01-12T05:03:46.395Z,101678.50
2023-01-12T05:06:14.641Z,101678.63
2023-01-12T05:09:00.684Z,101687.00
2023-01-12T05:11:28.707Z,101680.03
2023-01-12T05:13:57.632Z,101676.50
2023-01-12T05:16:25.310Z,101674.09
2023-01-12T05:18:55.851Z,101661.59
2023-01-12T05:21:24.255Z,101646.78
2023-01-12T05:23:52.814Z,101645.25
2023-01-12T05:26:20.765Z,101635.31
2023-01-12T05:28:49.916Z,101632.09
2023-01-12T05:31:17.690Z,101626.03
2023-01-12T05:33:46.029Z,101620.72
2023-01-12T05:36:14.781Z,101628.22
2023-01-12T05:38:42.796Z,101629.63
2023-01-12T05:41:16.012Z,101637.78
2023-01-12T05:43:52.372Z,101640.09
2023-01-12T05:46:24.322Z,101645.19
2023-01-12T05:48:51.412Z,101647.25
2023-01-12T05:51:19.342Z,101650.72
2023-01-12T05:53:47.155Z,101650.34
2023-01-12T05:56:21.598Z,101654.94
2023-01-12T05:58:59.405Z,101659.81
2023-01-12T06:01:27.234Z,101667.59
2023-01-12T06:03:57.508Z,101674.19
2023-01-12T06:06:30.627Z,101683.94
2023-01-12T06:08:58.746Z,101674.78
2023-01-12T06:11:44.914Z,101678.13
2023-01-12T06:14:12.676Z,101683.63
2023-01-12T06:16:42.759Z,101689.72
2023-01-12T06:19:12.629Z,101698.88
2023-01-12T06:21:42.817Z,101701.91
2023-01-12T06:24:11.233Z,101706.19
2023-01-12T06:26:39.110Z,101704.66
2023-01-12T06:29:07.310Z,101716.84
2023-01-12T06:31:34.641Z,101709.50
2023-01-12T06:34:02.367Z,101710.03
2023-01-12T06:36:30.544Z,101714.31
2023-01-12T06:38:58.565Z,101721.69
2023-01-12T06:41:44.868Z,101716.50
2023-01-12T06:44:15.378Z,101719.91
2023-01-12T06:46:43.320Z,101722.94
2023-01-12T06:49:11.179Z,101718.38
2023-01-12T06:51:38.956Z,101742.50
2023-01-12T06:54:07.129Z,101747.56
2023-01-12T06:56:35.644Z,101748.59
2023-01-12T06:59:04.139Z,101743.38
2023-01-12T07:01:32.205Z,101744.53
2023-01-12T07:03:59.862Z,101728.28
2023-01-12T07:06:27.929Z,101747.81
2023-01-12T07:08:55.621Z,101750.13
2023-01-12T07:11:23.224Z,101753.66
2023-01-12T07:13:51.095Z,101761.91
2023-01-12T07:16:19.373Z,101761.78
2023-01-12T07:18:47.950Z,101761.63
2023-01-12T07:21:18.038Z,101758.97
2023-01-12T07:23:46.052Z,101761.72
2023-01-12T07:26:13.746Z,101767.78
2023-01-12T07:28:41.160Z,101758.16
2023-01-12T07:31:09.351Z,101775.91
2023-01-12T07:33:38.601Z,101755.66
2023-01-12T07:36:07.859Z,101748.78
2023-01-12T07:38:36.538Z,101743.53
2023-01-12T07:41:05.086Z,101745.81
2023-01-12T07:43:33.749Z,101766.09
2023-01-12T07:46:01.866Z,101770.34
2023-01-12T07:48:30.867Z,101768.06
2023-01-12T07:50:59.196Z,101776.41
2023-01-12T07:53:27.209Z,101774.34
2023-01-12T07:55:55.054Z,101786.00
2023-01-12T07:58:23.092Z,101780.47
2023-01-12T08:00:51.324Z,101782.31
2023-01-12T08:03:19.463Z,101795.50
2023-01-12T08:05:47.695Z,101794.97
2023-01-12T08:08:15.782Z,101801.59
2023-01-12T08:10:45.371Z,101811.31
2023-01-12T08:13:13.206Z,101807.63
2023-01-12T08:15:42.979Z,101817.16
2023-01-12T08:18:15.174Z,101819.47
2023-01-12T08:20:43.214Z,101824.09
2023-01-12T08:23:50.953Z,101821.44
2023-01-12T08:26:27.544Z,101818.75
2023-01-12T08:29:30.005Z,101830.19
2023-01-12T08:32:05.822Z,101831.25
2023-01-12T08:34:34.244Z,101827.72
2023-01-12T08:37:02.720Z,101825.78
2023-01-12T08:39:30.790Z,101824.19
2023-01-12T08:41:58.637Z,101836.38
2023-01-12T08:44:31.474Z,101840.38
2023-01-12T08:46:59.552Z,101846.44
2023-01-12T08:49:27.446Z,101849.00
2023-01-12T08:51:55.142Z,101855.00
2023-01-12T08:54:22.527Z,101858.56
2023-01-12T08:56:50.949Z,101856.94
2023-01-12T08:59:19.358Z,101863.56
2023-01-12T09:01:46.756Z,101867.88
2023-01-12T09:04:14.439Z,101866.31
2023-01-12T09:06:43.013Z,101883.41
2023-01-12T09:09:11.302Z,101897.94
2023-01-12T09:11:42.444Z,101896.94
2023-01-12T09:14:11.013Z,101904.16
2023-01-12T09:16:38.897Z,101900.94
2023-01-12T09:19:05.980Z,101898.84
2023-01-12T09:21:33.464Z,101900.31
2023-01-12T09:24:01.383Z,101917.06
2023-01-12T09:26:32.206Z,101915.09
2023-01-12T09:29:04.279Z,101915.22
2023-01-12T09:31:33.356Z,101908.47
2023-01-12T09:34:01.592Z,101910.34
2023-01-12T09:36:31.299Z,101899.16
2023-01-12T09:38:59.175Z,101898.59
2023-01-12T09:41:56.440Z,101905.31
2023-01-12T09:44:56.874Z,101909.50
2023-01-12T09:47:36.160Z,101915.88
2023-01-12T09:50:31.648Z,101914.81
2023-01-12T09:53:20.757Z,101917.25
2023-01-12T09:55:53.010Z,101922.13
2023-01-12T09:58:27.185Z,101909.41
2023-01-12T10:00:58.569Z,101904.91
2023-01-12T10:03:27.023Z,101912.22
2023-01-12T10:05:55.514Z,101915.06
2023-01-12T10:08:32.568Z,101918.44
2023-01-12T10:11:05.243Z,101911.03
2023-01-12T10:13:57.180Z,101895.81
2023-01-12T10:17:06.555Z,101891.84
2023-01-12T10:20:04.083Z,101886.13
2023-01-12T10:22:39.850Z,101881.25
2023-01-12T10:25:22.073Z,101888.81
2023-01-12T10:27:51.585Z,101893.53
2023-01-12T10:30:32.908Z,101904.25
2023-01-12T10:33:36.522Z,101902.66
2023-01-12T10:36:08.692Z,101894.38
2023-01-12T10:38:38.365Z,101891.03
2023-01-12T10:41:08.158Z,101869.94
2023-01-12T10:43:39.544Z,101868.06
2023-01-12T10:46:09.660Z,101870.69
2023-01-12T10:48:39.226Z,101866.13
2023-01-12T10:51:18.589Z,101867.28
2023-01-12T10:53:52.599Z,101875.84
2023-01-12T10:56:55.937Z,101884.25
2023-01-12T10:59:24.082Z,101874.47
2023-01-12T11:02:09.303Z,101882.75
2023-01-12T11:04:49.598Z,101876.81
2023-01-12T11:07:29.209Z,101877.03
2023-01-12T11:09:58.468Z,101882.25
2023-01-12T11:12:36.896Z,101887.69
2023-01-12T11:15:03.596Z,101873.34
2023-01-12T11:17:50.199Z,101874.44
2023-01-12T11:20:52.376Z,101859.97
2023-01-12T11:23:39.179Z,101856.63
2023-01-12T11:26:14.160Z,101839.66
2023-01-12T11:28:45.026Z,101839.94
2023-01-12T11:31:32.530Z,101832.06
2023-01-12T11:34:22.372Z,101833.66
2023-01-12T11:36:54.935Z,101831.09
2023-01-12T11:39:25.190Z,101836.84
2023-01-12T11:42:18.171Z,101832.50
2023-01-12T11:45:01.618Z,101835.16
2023-01-12T11:47:34.243Z,101830.81
2023-01-12T11:50:21.789Z,101836.13
2023-01-12T11:52:49.026Z,101846.72
2023-01-12T11:55:17.888Z,101847.75
2023-01-12T11:57:47.943Z,101836.78
2023-01-12T12:01:00.167Z,101830.44
2023-01-12T12:03:39.447Z,101818.09
2023-01-12T12:06:31.472Z,101808.09
2023-01-12T12:09:22.947Z,101812.84
2023-01-12T12:11:57.656Z,101810.81
2023-01-12T12:14:39.769Z,101810.03
2023-01-12T12:17:31.735Z,101795.63
2023-01-12T12:20:10.498Z,101798.28
2023-01-12T12:22:55.891Z,101796.34
2023-01-12T12:25:25.321Z,101792.28
2023-01-12T12:28:07.635Z,101781.50
2023-01-12T12:31:00.322Z,101780.97
2023-01-12T12:33:43.557Z,101773.19
2023-01-12T12:36:22.521Z,101778.31
2023-01-12T12:38:55.821Z,101772.13
2023-01-12T12:41:43.973Z,101780.50
2023-01-12T12:44:36.790Z,101777.66
2023-01-12T12:47:51.500Z,101772.78
2023-01-12T12:50:18.409Z,101769.81
2023-01-12T12:52:47.334Z,101763.75
2023-01-12T12:55:15.502Z,101756.06
2023-01-12T12:57:58.772Z,101753.75
2023-01-12T13:00:46.696Z,101752.84
2023-01-12T13:03:42.457Z,101751.09
2023-01-12T13:06:48.944Z,101742.13
2023-01-12T13:09:15.897Z,101742.13
2023-01-12T13:11:57.950Z,101720.41
2023-01-12T13:14:35.113Z,101717.16
2023-01-12T13:17:20.878Z,101721.75
2023-01-12T13:20:08.484Z,101717.25
2023-01-12T13:22:46.461Z,101714.00
2023-01-12T13:25:16.481Z,101712.34
2023-01-12T13:28:01.634Z,101708.72
2023-01-12T13:30:28.595Z,101700.03
2023-01-12T13:32:55.162Z,101693.44
2023-01-12T13:35:34.697Z,101705.66
2023-01-12T13:38:22.833Z,101706.25
2023-01-12T13:40:55.535Z,101709.47
2023-01-12T13:43:30.675Z,101710.59
2023-01-12T13:46:01.282Z,101708.19
2023-01-12T13:48:28.942Z,101707.59
2023-01-12T13:51:00.800Z,101701.34
2023-01-12T13:53:29.858Z,101704.59
2023-01-12T13:55:59.126Z,101700.63
2023-01-12T13:58:26.730Z,101698.09
2023-01-12T14:01:01.034Z,101693.41
2023-01-12T14:03:53.201Z,101692.34
2023-01-12T14:06:55.686Z,101685.81
2023-01-12T14:09:37.664Z,101683.31
2023-01-12T14:12:33.905Z,101685.56
2023-01-12T14:15:47.623Z,101684.81
2023-01-12T14:18:19.692Z,101686.00
2023-01-12T14:20:57.664Z,101681.38
2023-01-12T14:23:28.149Z,101681.19
2023-01-12T14:26:14.078Z,101682.13
2023-01-12T14:28:43.027Z,101693.91
2023-01-12T14:31:24.390Z,101691.22
2023-01-12T14:33:56.439Z,101690.97
2023-01-12T14:36:26.828Z,101687.94
2023-01-12T14:38:53.660Z,101686.03
2023-01-12T14:41:40.811Z,101691.59
2023-01-12T14:44:25.941Z,101699.78
2023-01-12T14:46:55.872Z,101699.78
2023-01-12T14:49:30.605Z,101682.25
2023-01-12T14:51:59.149Z,101682.34
2023-01-12T14:54:34.339Z,101683.31
2023-01-12T14:57:03.475Z,101681.63
2023-01-12T14:59:32.348Z,101686.56
2023-01-12T15:02:37.798Z,101676.06
2023-01-12T15:05:26.667Z,101671.66
2023-01-12T15:08:02.315Z,101671.38
2023-01-12T15:10:35.748Z,101669.72
2023-01-12T15:13:21.779Z,101665.84
2023-01-12T15:16:09.353Z,101675.22
2023-01-12T15:18:55.298Z,101667.44
2023-01-12T15:21:41.765Z,101661.66
2023-01-12T15:24:39.570Z,101663.38
2023-01-12T15:27:08.285Z,101665.44
2023-01-12T15:29:36.025Z,101652.75
2023-01-12T15:32:03.466Z,101660.31
2023-01-12T15:34:32.158Z,101653.13
2023-01-12T15:37:00.879Z,101650.38
2023-01-12T15:39:30.234Z,101652.84
2023-01-12T15:42:17.374Z,101644.88
2023-01-12T15:44:45.663Z,101645.88
2023-01-12T15:47:19.584Z,101651.31
2023-01-12T15:49:49.074Z,101653.72
2023-01-12T15:52:24.064Z,101657.00
2023-01-12T15:55:14.782Z,101654.41
2023-01-12T15:57:49.420Z,101657.69
2023-01-12T16:00:25.018Z,101658.97
2023-01-12T16:02:53.156Z,101660.75
2023-01-12T16:05:21.838Z,101661.03
2023-01-12T16:07:50.026Z,101666.91
2023-01-12T16:10:18.919Z,101665.88
2023-01-12T16:12:52.811Z,101667.97
2023-01-12T16:15:23.750Z,101665.69
2023-01-12T16:17:51.254Z,101674.06
2023-01-12T16:20:20.229Z,101674.69
2023-01-12T16:22:47.653Z,101672.47
2023-01-12T16:25:18.020Z,101669.53
2023-01-12T16:27:47.470Z,101665.81
2023-01-12T16:30:17.782Z,101669.25
2023-01-12T16:32:47.165Z,101669.38
2023-01-12T16:35:15.753Z,101670.91
2023-01-12T16:37:43.586Z,101669.03
2023-01-12T16:40:13.007Z,101666.66
2023-01-12T16:43:01.671Z,101660.38
2023-01-12T16:45:30.300Z,101667.66
2023-01-12T16:47:58.754Z,101660.59
2023-01-12T16:50:27.737Z,101663.59
2023-01-12T16:52:55.590Z,101668.50
2023-01-12T16:55:24.071Z,101660.47
2023-01-12T16:57:59.606Z,101665.41
2023-01-12T17:00:28.085Z,101666.38
2023-01-12T17:02:58.086Z,101666.28
2023-01-12T17:05:27.436Z,101664.59
2023-01-12T17:07:56.446Z,101669.06
2023-01-12T17:10:25.281Z,101664.44
2023-01-12T17:12:57.924Z,101662.69
2023-01-12T17:15:28.236Z,101671.94
2023-01-12T17:17:57.067Z,101669.44
2023-01-12T17:20:25.135Z,101673.09
2023-01-12T17:22:53.382Z,101680.88
2023-01-12T17:25:22.028Z,101679.50
2023-01-12T17:27:49.709Z,101680.13
2023-01-12T17:30:18.612Z,101679.63
2023-01-12T17:32:50.082Z,101689.44
2023-01-12T17:35:18.307Z,101692.66
2023-01-12T17:37:46.013Z,101704.78
2023-01-12T17:40:14.377Z,101698.09
2023-01-12T17:43:01.313Z,101695.63
2023-01-12T17:45:29.820Z,101687.06
2023-01-12T17:47:59.555Z,101683.63
2023-01-12T17:50:28.227Z,101675.16
2023-01-12T17:52:58.405Z,101673.22
2023-01-12T17:55:26.412Z,101680.88
2023-01-12T17:57:55.452Z,101686.84
2023-01-12T18:00:25.071Z,101690.06
2023-01-12T18:02:53.388Z,101683.34
2023-01-12T18:05:21.264Z,101683.81
2023-01-12T18:07:48.955Z,101677.63
2023-01-12T18:10:18.908Z,101678.31
2023-01-12T18:12:47.105Z,101675.56
2023-01-12T18:15:15.463Z,101682.59
2023-01-12T18:17:43.078Z,101679.03
2023-01-12T18:20:12.586Z,101691.03
2023-01-12T18:22:40.336Z,101695.47
2023-01-12T18:25:10.405Z,101690.13
2023-01-12T18:27:38.152Z,101691.91
2023-01-12T18:30:09.972Z,101686.59
2023-01-12T18:32:39.963Z,101684.63
2023-01-12T18:35:08.885Z,101693.38
2023-01-12T18:37:36.794Z,101698.72
2023-01-12T18:40:04.698Z,101693.34
2023-01-12T18:42:52.189Z,101696.09
2023-01-12T18:45:19.599Z,101707.53
2023-01-12T18:48:09.801Z,101698.66
2023-01-12T18:51:04.070Z,101689.00
2023-01-12T18:53:34.011Z,101688.97
2023-01-12T18:56:04.432Z,101678.34
2023-01-12T18:58:32.632Z,101679.47
2023-01-12T19:01:02.771Z,101681.78
2023-01-12T19:03:31.028Z,101674.25
2023-01-12T19:06:00.608Z,101668.34
2023-01-12T19:08:51.516Z,101667.69
2023-01-12T19:11:19.588Z,101673.78
2023-01-12T19:14:05.766Z,101667.69
2023-01-12T19:16:52.229Z,101657.59
2023-01-12T19:19:50.387Z,101652.91
2023-01-12T19:22:36.378Z,101656.56
2023-01-12T19:25:23.214Z,101652.84
2023-01-12T19:28:09.722Z,101654.16
2023-01-12T19:30:38.252Z,101659.81
2023-01-12T19:33:08.935Z,101665.06
2023-01-12T19:35:37.496Z,101646.66
2023-01-12T19:38:05.710Z,101647.31
2023-01-12T19:40:44.292Z,101652.59
2023-01-12T19:43:17.566Z,101650.94
2023-01-12T19:45:46.218Z,101655.47
2023-01-12T19:48:14.755Z,101647.94
2023-01-12T19:50:44.105Z,101644.63
2023-01-12T19:53:35.183Z,101643.94
2023-01-12T19:56:04.383Z,101635.59
2023-01-12T19:58:38.727Z,101636.59
2023-01-12T20:01:08.656Z,101644.56
2023-01-12T20:03:43.119Z,101630.16
2023-01-12T20:06:15.868Z,101628.38
2023-01-12T20:08:44.444Z,101626.22
2023-01-12T20:11:13.572Z,101634.63
2023-01-12T20:13:42.081Z,101642.84
2023-01-12T20:16:12.710Z,101632.91
2023-01-12T20:18:44.627Z,101633.22
2023-01-12T20:21:13.895Z,101629.81
2023-01-12T20:23:41.860Z,101637.75
2023-01-12T20:26:09.303Z,101636.22
2023-01-12T20:28:39.767Z,101639.09
2023-01-12T20:31:15.650Z,101640.84
2023-01-12T20:33:43.612Z,101635.00
2023-01-12T20:36:21.328Z,101635.97
2023-01-12T20:38:57.139Z,101637.28
2023-01-12T20:41:25.873Z,101631.72
2023-01-12T20:43:54.085Z,101625.84
2023-01-12T20:46:22.083Z,101626.41
2023-01-12T20:48:54.463Z,101619.56
2023-01-12T20:51:45.020Z,101619.56
2023-01-12T20:54:19.715Z,101622.66
2023-01-12T20:56:50.007Z,101622.44
2023-01-12T20:59:29.388Z,101622.25
2023-01-12T21:01:58.418Z,101618.03
2023-01-12T21:04:34.586Z,101618.44
2023-01-12T21:07:05.512Z,101611.38
2023-01-12T21:09:43.561Z,101607.25
2023-01-12T21:12:12.039Z,101606.16
2023-01-12T21:14:46.007Z,101597.63
2023-01-12T21:17:28.718Z,101606.72
2023-01-12T21:19:58.686Z,101603.00
2023-01-12T21:22:28.419Z,101604.53
2023-01-12T21:25:00.551Z,101600.09
2023-01-12T21:27:28.075Z,101599.53
2023-01-12T21:29:58.148Z,101592.38
2023-01-12T21:32:27.248Z,101598.13
2023-01-12T21:35:00.657Z,101598.78
2023-01-12T21:37:38.597Z,101597.69
2023-01-12T21:40:10.160Z,101608.31
2023-01-12T21:43:16.219Z,101604.31
2023-01-12T21:45:45.785Z,101611.66
2023-01-12T21:48:20.096Z,101611.41
2023-01-12T21:51:08.192Z,101618.50
2023-01-12T21:53:36.211Z,101617.28
2023-01-12T21:56:28.361Z,101615.94
2023-01-12T21:58:56.671Z,101613.19
2023-01-12T22:01:24.849Z,101619.91
2023-01-12T22:04:13.248Z,101614.50
2023-01-12T22:07:00.852Z,101615.72
2023-01-12T22:09:29.751Z,101619.59
2023-01-12T22:12:18.019Z,101612.25
2023-01-12T22:15:06.395Z,101618.91
2023-01-12T22:17:54.862Z,101622.44
2023-01-12T22:20:22.740Z,101621.75
2023-01-12T22:22:50.331Z,101618.44
2023-01-12T22:25:39.026Z,101619.13
2023-01-12T22:28:27.327Z,101609.00
2023-01-12T22:31:15.467Z,101606.56
2023-01-12T22:34:06.439Z,101597.59
2023-01-12T22:36:37.140Z,101601.91
2023-01-12T22:39:28.508Z,101600.16
2023-01-12T22:42:16.404Z,101597.63
2023-01-12T22:45:04.592Z,101603.41
2023-01-12T22:48:03.343Z,101606.03
2023-01-12T22:50:51.626Z,101611.81
2023-01-12T22:53:19.749Z,101601.84
2023-01-12T22:55:47.691Z,101603.28
2023-01-12T22:58:15.764Z,101595.22
2023-01-12T23:00:45.806Z,101595.91
2023-01-12T23:03:15.511Z,101595.22
2023-01-12T23:06:04.693Z,101581.06
2023-01-12T23:08:32.058Z,101580.84
2023-01-12T23:11:35.169Z,101579.75
2023-01-12T23:14:07.498Z,101583.06
2023-01-12T23:16:39.632Z,101564.38
2023-01-12T23:19:08.133Z,101558.47
2023-01-12T23:21:37.324Z,101555.16
2023-01-12T23:24:57.645Z,101552.13
2023-01-12T23:27:33.827Z,101559.00
2023-01-12T23:30:01.899Z,101557.69
2023-01-12T23:32:33.543Z,101554.78
2023-01-12T23:35:11.004Z,101542.97
2023-01-12T23:37:40.257Z,101542.16
2023-01-12T23:40:15.943Z,101539.72
2023-01-12T23:42:44.210Z,101531.97
2023-01-12T23:45:14.391Z,101531.97
2023-01-12T23:47:43.095Z,101536.75
2023-01-12T23:50:14.056Z,101530.75
2023-01-12T23:52:42.390Z,101522.56
2023-01-12T23:55:12.080Z,101524.09
2023-01-12T23:57:41.198Z,101527.44
